Time;durP1;ratioP1;P1;durP2;ratioP2;P2;SDS_P1;SDS_P2;PMS_P1;PMS_P2;Temp;Humidity;BMP_temperature;BMP_pressure;BME280_temperature;BME280_humidity;BME280_pressure;Samples;Min_cycle;Max_cycle;Signal;HPM_P1;HPM_P2
2023/06/23 00:01:17;;;;;;;25.33;21.35;;;18.00;99.90;;;;;;5062408;28;20041;-77
2023/06/23 00:03:45;;;;;;;24.15;21.55;;;17.90;99.90;;;;;;5061159;28;20072;-77
2023/06/23 00:06:11;;;;;;;26.75;22.45;;;17.90;99.90;;;;;;5058854;28;20053;-77
2023/06/23 00:08:40;;;;;;;25.98;23.17;;;17.90;99.90;;;;;;5061645;28;20044;-77
2023/06/23 00:11:07;;;;;;;25.88;22.83;;;17.80;99.90;;;;;;5057472;28;20149;-77
2023/06/23 00:13:36;;;;;;;27.85;23.27;;;17.80;99.90;;;;;;5059631;28;20047;-77
2023/06/23 00:16:04;;;;;;;26.80;22.92;;;17.80;99.90;;;;;;5061481;28;20119;-76
2023/06/23 00:18:39;;;;;;;26.92;24.05;;;17.80;99.90;;;;;;5062816;28;20114;-77
2023/06/23 00:21:08;;;;;;;27.38;24.13;;;17.80;99.90;;;;;;5058877;28;20830;-76
2023/06/23 00:23:34;;;;;;;28.30;25.00;;;17.80;99.90;;;;;;5065221;28;20041;-77
2023/06/23 00:26:00;;;;;;;28.48;25.17;;;17.80;99.90;;;;;;5039177;28;20044;-76
2023/06/23 00:28:26;;;;;;;29.92;25.60;;;17.70;99.90;;;;;;5045640;28;20041;-77
2023/06/23 00:30:53;;;;;;;33.38;26.45;;;17.70;99.90;;;;;;5047608;28;20098;-76
2023/06/23 00:33:19;;;;;;;30.80;27.50;;;17.70;99.90;;;;;;5064819;28;20049;-77
2023/06/23 00:35:44;;;;;;;33.95;28.90;;;17.70;99.90;;;;;;5059559;28;21808;-76
2023/06/23 00:38:10;;;;;;;31.23;27.92;;;17.60;99.90;;;;;;5044091;28;20454;-76
2023/06/23 00:40:36;;;;;;;31.38;27.15;;;17.60;99.90;;;;;;5066798;28;20720;-76
2023/06/23 00:43:02;;;;;;;32.80;28.63;;;17.60;99.90;;;;;;5031116;28;20048;-75
2023/06/23 00:45:28;;;;;;;29.80;26.63;;;17.60;99.90;;;;;;5042819;28;20075;-77
2023/06/23 00:47:55;;;;;;;31.85;27.95;;;17.50;99.90;;;;;;5046632;28;20467;-76
2023/06/23 00:50:23;;;;;;;31.63;27.92;;;17.50;99.90;;;;;;5057338;28;20045;-77
2023/06/23 00:52:52;;;;;;;30.27;26.88;;;17.50;99.90;;;;;;5037791;28;20090;-76
2023/06/23 00:55:20;;;;;;;30.25;26.85;;;17.40;99.90;;;;;;5063218;28;20036;-77
2023/06/23 00:57:50;;;;;;;30.30;27.17;;;17.40;99.90;;;;;;5040479;28;20049;-77
2023/06/23 01:00:20;;;;;;;30.42;27.02;;;17.40;99.90;;;;;;5042272;28;20037;-76
2023/06/23 01:02:50;;;;;;;33.35;27.23;;;17.40;99.90;;;;;;5046933;28;20036;-76
2023/06/23 01:05:18;;;;;;;30.30;27.15;;;17.40;99.90;;;;;;5058670;28;20121;-75
2023/06/23 01:07:50;;;;;;;28.77;25.73;;;17.40;99.90;;;;;;5065596;28;20051;-76
2023/06/23 01:10:27;;;;;;;32.15;26.58;;;17.30;99.90;;;;;;5068462;28;20080;-77
2023/06/23 01:13:19;;;;;;;29.35;26.10;;;17.30;99.90;;;;;;5050609;28;20068;-75
2023/06/23 01:15:56;;;;;;;28.95;25.15;;;17.20;99.90;;;;;;5065133;28;20048;-75
2023/06/23 01:18:40;;;;;;;28.20;24.83;;;17.20;99.90;;;;;;5043308;28;20103;-77
2023/06/23 01:21:10;;;;;;;31.45;25.33;;;17.10;99.90;;;;;;5055522;28;20127;-75
2023/06/23 01:23:45;;;;;;;29.42;26.23;;;17.10;99.90;;;;;;5060898;28;20764;-76
2023/06/23 01:26:42;;;;;;;29.73;25.52;;;17.00;99.90;;;;;;5047035;28;20437;-76
2023/06/23 01:29:16;;;;;;;35.05;29.50;;;16.90;99.90;;;;;;5058729;28;20523;-75
2023/06/23 01:32:05;;;;;;;36.67;30.55;;;16.90;99.90;;;;;;5042253;28;20048;-76
2023/06/23 01:34:55;;;;;;;37.75;33.50;;;16.90;99.90;;;;;;5058079;28;20059;-76
2023/06/23 01:37:34;;;;;;;41.83;35.45;;;16.90;99.90;;;;;;5064691;28;20072;-76
2023/06/23 01:40:09;;;;;;;44.05;37.63;;;16.90;99.90;;;;;;5045779;28;20227;-77
2023/06/23 01:42:40;;;;;;;47.70;40.40;;;16.90;99.90;;;;;;5065171;28;20127;-77
2023/06/23 01:45:07;;;;;;;46.50;41.50;;;16.90;99.90;;;;;;5043817;28;20036;-77
2023/06/23 01:47:39;;;;;;;49.47;44.28;;;16.90;99.90;;;;;;5045315;28;20115;-77
2023/06/23 01:50:08;;;;;;;49.60;44.45;;;16.90;99.90;;;;;;5064738;28;20041;-76
2023/06/23 01:52:37;;;;;;;51.35;45.83;;;16.90;99.90;;;;;;5062650;28;20767;-76
2023/06/23 01:55:05;;;;;;;52.20;46.30;;;16.80;99.90;;;;;;5067580;28;20125;-76
2023/06/23 01:57:33;;;;;;;52.08;46.28;;;16.70;99.90;;;;;;5061005;28;20036;-76
2023/06/23 02:00:00;;;;;;;52.17;46.70;;;16.80;99.90;;;;;;5065763;28;20499;-76
2023/06/23 02:02:27;;;;;;;58.67;46.42;;;16.70;99.90;;;;;;5063968;28;20057;-76
2023/06/23 02:04:55;;;;;;;52.83;45.08;;;16.60;99.90;;;;;;5043133;28;20044;-76
2023/06/23 02:07:22;;;;;;;52.40;46.42;;;16.60;99.90;;;;;;5063357;28;20079;-76
2023/06/23 02:09:49;;;;;;;51.13;45.67;;;16.70;99.90;;;;;;5031430;28;20032;-75
2023/06/23 02:12:16;;;;;;;54.50;46.60;;;16.70;99.90;;;;;;5049832;28;20044;-75
2023/06/23 02:14:44;;;;;;;56.53;46.80;;;16.70;99.90;;;;;;5049288;28;20048;-76
2023/06/23 02:17:10;;;;;;;56.58;46.00;;;16.60;99.90;;;;;;5045816;28;20452;-75
2023/06/23 02:19:39;;;;;;;51.40;45.25;;;16.70;99.90;;;;;;5046832;28;20044;-75
2023/06/23 02:22:11;;;;;;;51.67;45.97;;;16.60;99.90;;;;;;5041757;28;20040;-75
2023/06/23 02:24:39;;;;;;;49.65;44.10;;;16.60;99.90;;;;;;5045805;28;20044;-76
2023/06/23 02:27:07;;;;;;;55.70;44.53;;;16.60;99.90;;;;;;5047441;28;20048;-76
2023/06/23 02:29:37;;;;;;;53.95;45.72;;;16.60;99.90;;;;;;5065708;28;20523;-76
2023/06/23 02:32:04;;;;;;;55.10;45.97;;;16.60;99.90;;;;;;5062599;28;20395;-75
2023/06/23 02:34:30;;;;;;;53.65;43.88;;;16.60;99.90;;;;;;5048783;28;20044;-76
2023/06/23 02:37:00;;;;;;;53.15;44.05;;;16.60;99.90;;;;;;5047553;28;20514;-75
2023/06/23 02:39:30;;;;;;;57.15;44.63;;;16.60;99.90;;;;;;5046858;28;20121;-76
2023/06/23 02:41:59;;;;;;;47.63;41.03;;;16.60;99.90;;;;;;5047712;28;20449;-76
2023/06/23 02:44:36;;;;;;;44.50;37.83;;;16.60;99.90;;;;;;5048385;28;20136;-75
2023/06/23 02:47:05;;;;;;;50.85;41.20;;;16.60;99.90;;;;;;5063668;28;20542;-74
2023/06/23 02:49:31;;;;;;;45.28;37.30;;;16.60;99.90;;;;;;5047650;28;20139;-74
2023/06/23 02:52:00;;;;;;;45.60;37.95;;;16.60;99.90;;;;;;5044704;28;20048;-75
2023/06/23 02:54:31;;;;;;;47.00;36.65;;;16.50;99.90;;;;;;5046397;28;20060;-75
2023/06/23 02:56:58;;;;;;;49.47;37.75;;;16.50;99.90;;;;;;5063993;28;20036;-74
2023/06/23 02:59:27;;;;;;;45.60;36.95;;;16.50;99.90;;;;;;5047380;28;20047;-74
2023/06/23 03:01:54;;;;;;;46.25;36.30;;;16.50;99.90;;;;;;5060627;28;20077;-75
2023/06/23 03:04:21;;;;;;;46.13;35.00;;;16.50;99.90;;;;;;5061246;28;20388;-75
2023/06/23 03:06:47;;;;;;;42.28;32.58;;;16.50;99.90;;;;;;5061747;28;20040;-75
2023/06/23 03:09:12;;;;;;;40.25;32.08;;;16.40;99.90;;;;;;5054513;28;20048;-75
2023/06/23 03:11:38;;;;;;;37.30;29.45;;;16.50;99.90;;;;;;5064765;28;20396;-75
2023/06/23 03:14:05;;;;;;;34.10;27.73;;;16.40;99.90;;;;;;5030803;28;20127;-75
2023/06/23 03:16:55;;;;;;;37.70;28.23;;;16.40;99.90;;;;;;5046664;28;20044;-75
2023/06/23 03:19:28;;;;;;;35.60;28.45;;;16.50;99.90;;;;;;5045513;28;20301;-75
2023/06/23 03:22:04;;;;;;;37.45;27.88;;;16.50;99.90;;;;;;5027947;28;20420;-75
2023/06/23 03:24:31;;;;;;;41.97;29.58;;;16.40;99.90;;;;;;5063471;28;20428;-75
2023/06/23 03:27:01;;;;;;;39.28;28.10;;;16.40;99.90;;;;;;5049540;28;20499;-76
2023/06/23 03:29:30;;;;;;;36.00;27.55;;;16.40;99.90;;;;;;5044812;28;20373;-75
2023/06/23 03:32:02;;;;;;;33.33;26.45;;;16.40;99.90;;;;;;5025934;28;20040;-76
2023/06/23 03:34:39;;;;;;;38.00;27.97;;;16.30;99.90;;;;;;5060370;28;20139;-76
2023/06/23 03:37:07;;;;;;;40.25;27.67;;;16.20;99.90;;;;;;5062246;28;20503;-76
2023/06/23 03:39:38;;;;;;;34.30;26.45;;;16.20;99.90;;;;;;5062690;28;20528;-75
2023/06/23 03:42:05;;;;;;;35.15;26.70;;;16.20;99.90;;;;;;5046478;28;20122;-77
2023/06/23 03:44:38;;;;;;;37.03;25.90;;;16.10;99.90;;;;;;5046643;28;20396;-75
2023/06/23 03:47:11;;;;;;;36.15;26.55;;;16.10;99.90;;;;;;5062369;28;20037;-76
2023/06/23 03:49:44;;;;;;;34.92;25.90;;;16.00;99.90;;;;;;5042526;28;20191;-76
2023/06/23 03:52:10;;;;;;;;;;;16.00;99.90;;;;;;5058671;28;20602;-76
2023/06/23 03:54:39;;;;;;;36.15;24.73;;;16.00;99.90;;;;;;5063426;28;20162;-76
2023/06/23 03:57:09;;;;;;;35.08;24.13;;;16.00;99.90;;;;;;5044568;28;20127;-75
2023/06/23 03:59:38;;;;;;;28.67;22.70;;;15.90;99.90;;;;;;5030179;28;20488;-75
2023/06/23 04:02:05;;;;;;;34.15;23.77;;;15.90;99.90;;;;;;5053812;28;21141;-75
2023/06/23 04:04:34;;;;;;;34.17;23.67;;;15.90;99.90;;;;;;5060772;28;20041;-75
2023/06/23 04:07:01;;;;;;;30.13;23.23;;;15.90;99.90;;;;;;5063727;28;20040;-75
2023/06/23 04:09:28;;;;;;;31.52;22.35;;;15.90;99.90;;;;;;5044725;28;20135;-75
2023/06/23 04:11:55;;;;;;;32.25;23.60;;;16.00;99.90;;;;;;5065377;28;20098;-75
2023/06/23 04:14:24;;;;;;;34.58;22.98;;;16.20;99.90;;;;;;5063546;28;20044;-75
2023/06/23 04:16:51;;;;;;;32.33;22.80;;;16.30;99.90;;;;;;5056798;28;20045;-75
2023/06/23 04:19:21;;;;;;;32.33;21.85;;;16.50;99.90;;;;;;5064673;28;20052;-76
2023/06/23 04:21:49;;;;;;;31.55;22.02;;;16.90;99.90;;;;;;5041059;28;20041;-74
2023/06/23 04:24:15;;;;;;;32.80;22.42;;;17.40;99.90;;;;;;5061102;28;20047;-75
2023/06/23 04:26:43;;;;;;;27.20;20.33;;;17.80;99.90;;;;;;5046598;28;20215;-76
2023/06/23 04:29:12;;;;;;;31.63;21.92;;;18.20;99.90;;;;;;5048347;28;20045;-75
2023/06/23 04:31:40;;;;;;;34.38;22.00;;;18.40;99.90;;;;;;5058972;28;20047;-75
2023/06/23 04:34:06;;;;;;;30.63;21.27;;;18.10;99.90;;;;;;5063442;28;20538;-75
2023/06/23 04:36:57;;;;;;;34.20;22.15;;;17.80;99.90;;;;;;5058995;28;20029;-75
2023/06/23 04:39:29;;;;;;;32.97;22.25;;;17.50;99.90;;;;;;5065421;28;20053;-75
2023/06/23 04:42:02;;;;;;;29.05;21.17;;;17.30;99.90;;;;;;5043836;28;20060;-75
2023/06/23 04:44:32;;;;;;;29.42;20.85;;;17.10;99.90;;;;;;5044523;28;20044;-76
2023/06/23 04:47:02;;;;;;;29.95;20.83;;;17.00;99.90;;;;;;5055287;28;20475;-74
2023/06/23 04:49:31;;;;;;;31.33;21.05;;;16.90;99.90;;;;;;5058851;28;20431;-75
2023/06/23 04:52:02;;;;;;;30.15;22.33;;;16.80;99.90;;;;;;5043546;28;20067;-75
2023/06/23 04:54:39;;;;;;;31.67;24.05;;;16.70;99.90;;;;;;5041180;28;20430;-75
2023/06/23 04:57:09;;;;;;;29.25;22.90;;;16.80;99.90;;;;;;5026594;28;20060;-75
2023/06/23 04:59:39;;;;;;;34.35;23.05;;;16.80;99.90;;;;;;5060180;28;20415;-75
2023/06/23 05:02:08;;;;;;;31.08;22.73;;;16.80;99.90;;;;;;5044629;28;20064;-75
2023/06/23 05:04:35;;;;;;;29.58;21.63;;;16.80;99.90;;;;;;5070464;28;20055;-75
2023/06/23 05:07:03;;;;;;;35.67;22.20;;;17.00;99.90;;;;;;5063474;28;20809;-76
2023/06/23 05:09:30;;;;;;;24.95;20.67;;;17.10;99.90;;;;;;5045251;28;20045;-76
2023/06/23 05:11:58;;;;;;;28.17;20.75;;;17.30;99.90;;;;;;5047063;28;20036;-76
2023/06/23 05:14:26;;;;;;;28.00;20.67;;;17.40;99.90;;;;;;5031114;28;20072;-75
2023/06/23 05:16:54;;;;;;;25.65;20.25;;;17.60;99.90;;;;;;5050648;28;20373;-76
2023/06/23 05:19:21;;;;;;;26.48;20.48;;;17.70;99.90;;;;;;5048133;28;20041;-75
2023/06/23 05:21:49;;;;;;;26.05;20.00;;;17.80;99.90;;;;;;5047895;28;20044;-76
2023/06/23 05:24:18;;;;;;;24.45;18.38;;;18.00;99.90;;;;;;5052832;28;20056;-77
2023/06/23 05:26:45;;;;;;;25.55;19.52;;;18.10;99.90;;;;;;5063398;28;20119;-78
2023/06/23 05:29:13;;;;;;;23.83;19.38;;;18.30;99.90;;;;;;5046164;28;20141;-78
2023/06/23 05:31:42;;;;;;;24.15;19.02;;;18.30;99.90;;;;;;5033853;28;20059;-78
2023/06/23 05:34:12;;;;;;;24.48;18.88;;;18.50;99.90;;;;;;5043482;28;20048;-77
2023/06/23 05:36:41;;;;;;;22.65;18.10;;;18.60;99.90;;;;;;5042695;28;20097;-77
2023/06/23 05:39:09;;;;;;;21.65;18.80;;;18.70;99.90;;;;;;5057008;28;20417;-75
2023/06/23 05:41:35;;;;;;;22.27;18.20;;;18.90;99.90;;;;;;5055056;28;20033;-79
2023/06/23 05:44:01;;;;;;;23.35;18.10;;;18.90;99.90;;;;;;5061512;28;20365;-79
2023/06/23 05:46:29;;;;;;;21.42;16.27;;;19.10;99.90;;;;;;5038429;28;20051;-80
2023/06/23 05:49:02;;;;;;;18.50;14.93;;;19.10;99.90;;;;;;5054730;28;20071;-78
2023/06/23 05:51:31;;;;;;;22.55;16.13;;;19.30;99.90;;;;;;5066076;28;20052;-76
2023/06/23 05:54:01;;;;;;;21.63;16.98;;;19.40;99.90;;;;;;5064233;28;20129;-77
2023/06/23 05:56:35;;;;;;;20.13;16.60;;;19.40;99.90;;;;;;5064707;28;20105;-77
2023/06/23 05:59:05;;;;;;;18.13;16.27;;;19.50;99.90;;;;;;5062312;28;20045;-77
2023/06/23 06:01:36;;;;;;;17.35;13.68;;;19.70;99.90;;;;;;5049715;28;20373;-77
2023/06/23 06:04:13;;;;;;;17.65;13.35;;;19.70;99.90;;;;;;5043137;28;20037;-77
2023/06/23 06:06:40;;;;;;;16.30;13.20;;;19.80;99.90;;;;;;5047577;28;20353;-77
2023/06/23 06:09:11;;;;;;;15.45;12.30;;;19.80;99.90;;;;;;5034207;28;20040;-77
2023/06/23 06:11:40;;;;;;;15.57;11.10;;;19.90;99.90;;;;;;5027644;28;20049;-77
2023/06/23 06:14:08;;;;;;;14.30;11.45;;;19.90;99.90;;;;;;5065238;28;20047;-75
2023/06/23 06:16:36;;;;;;;15.57;11.80;;;20.00;99.90;;;;;;5068204;28;20043;-77
2023/06/23 06:19:02;;;;;;;14.55;11.07;;;20.00;99.90;;;;;;5069170;28;20492;-73
2023/06/23 06:21:30;;;;;;;15.75;11.88;;;20.10;99.90;;;;;;5064485;28;20040;-72
2023/06/23 06:23:57;;;;;;;14.57;11.50;;;20.20;99.90;;;;;;5066491;28;20075;-73
2023/06/23 06:26:24;;;;;;;15.77;11.43;;;20.30;99.90;;;;;;5060945;28;20052;-72
2023/06/23 06:28:52;;;;;;;11.18;10.00;;;20.40;99.90;;;;;;5047173;28;20067;-72
2023/06/23 06:31:18;;;;;;;15.40;10.65;;;20.40;99.90;;;;;;5043323;28;20526;-74
2023/06/23 06:33:48;;;;;;;12.20;10.77;;;20.40;99.90;;;;;;5043886;28;20037;-73
2023/06/23 06:36:15;;;;;;;12.30;11.00;;;20.40;99.90;;;;;;5064534;28;20395;-74
2023/06/23 06:38:42;;;;;;;12.95;10.73;;;20.50;99.90;;;;;;5044892;28;20049;-73
2023/06/23 06:41:08;;;;;;;11.48;9.40;;;20.60;99.90;;;;;;5063775;28;20043;-73
2023/06/23 06:43:35;;;;;;;11.45;9.60;;;20.60;99.90;;;;;;5047006;28;20098;-74
2023/06/23 06:46:02;;;;;;;12.95;10.98;;;20.70;99.90;;;;;;5051383;28;20044;-74
2023/06/23 06:48:31;;;;;;;14.95;10.93;;;20.80;99.90;;;;;;5046652;28;20040;-75
2023/06/23 06:50:58;;;;;;;11.27;9.63;;;20.90;99.90;;;;;;5047834;28;20037;-73
2023/06/23 06:53:25;;;;;;;11.88;9.57;;;21.00;99.90;;;;;;5041601;28;20229;-75
2023/06/23 06:55:51;;;;;;;11.35;8.52;;;21.00;99.90;;;;;;5056464;28;20058;-75
2023/06/23 06:58:17;;;;;;;18.75;9.13;;;21.00;99.90;;;;;;5063959;28;20036;-75
2023/06/23 07:00:43;;;;;;;8.68;6.90;;;21.20;99.90;;;;;;5047255;28;20045;-75
2023/06/23 07:03:18;;;;;;;11.50;8.48;;;21.30;99.90;;;;;;5064952;28;20044;-74
2023/06/23 07:05:44;;;;;;;12.35;8.30;;;21.50;99.90;;;;;;5065115;28;20044;-77
2023/06/23 07:08:10;;;;;;;9.00;6.85;;;21.60;99.90;;;;;;5026926;28;20040;-77
2023/06/23 07:10:36;;;;;;;8.82;6.90;;;21.70;99.90;;;;;;5042018;28;20491;-77
2023/06/23 07:13:03;;;;;;;10.13;6.80;;;21.90;99.90;;;;;;5039042;28;20044;-76
2023/06/23 07:15:29;;;;;;;9.52;6.70;;;22.00;99.90;;;;;;5061510;28;20502;-77
2023/06/23 07:17:55;;;;;;;10.75;7.00;;;22.00;99.90;;;;;;5047387;28;20110;-77
2023/06/23 07:20:21;;;;;;;9.65;6.18;;;22.10;99.90;;;;;;5038218;28;20580;-76
2023/06/23 07:22:46;;;;;;;10.93;6.32;;;22.30;99.90;;;;;;5056744;28;20400;-78
2023/06/23 07:25:12;;;;;;;13.73;7.40;;;22.40;99.90;;;;;;5040483;28;20131;-78
2023/06/23 07:27:38;;;;;;;8.60;6.57;;;22.50;99.90;;;;;;5035335;28;20223;-78
2023/06/23 07:30:04;;;;;;;11.90;7.10;;;22.60;99.90;;;;;;5058692;28;20071;-79
2023/06/23 07:32:30;;;;;;;7.13;6.13;;;22.70;99.90;;;;;;5038343;28;20717;-77
2023/06/23 07:34:56;;;;;;;9.00;6.35;;;22.70;99.90;;;;;;5039573;28;20090;-78
2023/06/23 07:37:22;;;;;;;10.50;6.68;;;22.90;99.90;;;;;;5055298;28;21704;-78
2023/06/23 07:39:48;;;;;;;7.97;6.28;;;23.00;99.90;;;;;;5042296;28;20204;-78
2023/06/23 07:42:14;;;;;;;9.05;6.15;;;23.10;99.90;;;;;;5045863;28;20044;-79
2023/06/23 07:44:39;;;;;;;7.78;5.60;;;23.30;99.90;;;;;;5057537;28;20470;-75
2023/06/23 07:47:06;;;;;;;9.45;4.50;;;23.30;99.90;;;;;;5058997;28;20557;-77
2023/06/23 07:49:32;;;;;;;7.13;5.60;;;23.40;99.90;;;;;;5065233;28;20032;-79
2023/06/23 07:52:04;;;;;;;10.30;6.07;;;23.50;99.90;;;;;;5045183;28;20053;-77
2023/06/23 07:54:30;;;;;;;8.85;6.32;;;23.60;99.90;;;;;;5063615;28;20183;-78
2023/06/23 07:56:57;;;;;;;12.45;5.97;;;23.70;99.90;;;;;;5057512;28;20144;-78
2023/06/23 07:59:25;;;;;;;8.93;5.85;;;23.80;99.90;;;;;;5046843;28;20484;-77
2023/06/23 08:01:51;;;;;;;7.50;5.57;;;23.80;99.90;;;;;;5063961;28;20177;-79
2023/06/23 08:04:17;;;;;;;7.68;5.05;;;23.80;99.90;;;;;;5060419;28;20058;-76
2023/06/23 08:06:43;;;;;;;8.80;4.78;;;23.90;99.90;;;;;;5047067;28;20044;-72
2023/06/23 08:09:09;;;;;;;7.80;4.70;;;23.90;99.90;;;;;;5043058;28;20044;-73
2023/06/23 08:11:34;;;;;;;6.82;4.72;;;23.90;99.90;;;;;;5053200;28;20041;-74
2023/06/23 08:14:00;;;;;;;7.75;4.40;;;23.80;99.90;;;;;;5044004;28;20045;-73
2023/06/23 08:16:26;;;;;;;6.50;4.05;;;23.80;99.90;;;;;;5040466;28;20058;-73
2023/06/23 08:18:52;;;;;;;6.88;4.60;;;23.90;99.90;;;;;;5047551;28;20610;-78
2023/06/23 08:21:19;;;;;;;9.25;5.20;;;23.90;99.90;;;;;;5056045;28;20040;-72
2023/06/23 08:23:48;;;;;;;7.25;4.63;;;24.10;99.90;;;;;;5054642;28;20036;-74
2023/06/23 08:26:15;;;;;;;5.47;4.13;;;24.20;99.90;;;;;;5059767;28;20053;-75
2023/06/23 08:28:40;;;;;;;9.48;4.55;;;24.20;99.90;;;;;;5048938;28;20438;-79
2023/06/23 08:31:06;;;;;;;7.57;4.25;;;24.10;99.90;;;;;;5032384;28;20072;-76
2023/06/23 08:33:35;;;;;;;8.35;4.53;;;24.20;99.90;;;;;;5057257;28;20056;-76
2023/06/23 08:36:01;;;;;;;7.65;5.15;;;24.20;99.90;;;;;;5062490;28;20048;-74
2023/06/23 08:38:27;;;;;;;6.05;4.47;;;24.30;99.90;;;;;;5046969;28;20044;-76
2023/06/23 08:40:54;;;;;;;5.32;4.60;;;24.30;99.90;;;;;;5043165;28;20040;-73
2023/06/23 08:43:25;;;;;;;8.65;4.80;;;24.20;99.90;;;;;;5043368;28;20048;-76
2023/06/23 08:45:55;;;;;;;7.70;4.90;;;24.10;99.90;;;;;;5062414;28;20052;-75
2023/06/23 08:48:27;;;;;;;8.07;5.40;;;23.90;99.90;;;;;;5048785;28;20174;-76
2023/06/23 08:51:01;;;;;;;8.45;5.63;;;23.90;99.90;;;;;;5061152;28;20090;-76
2023/06/23 08:53:27;;;;;;;6.25;5.50;;;24.10;99.90;;;;;;5033738;28;20570;-75
2023/06/23 08:55:54;;;;;;;8.07;4.93;;;24.20;99.90;;;;;;5054309;28;20040;-76
2023/06/23 08:58:21;;;;;;;8.30;5.20;;;24.30;99.90;;;;;;5066243;28;20040;-73
2023/06/23 09:00:49;;;;;;;7.88;5.40;;;24.50;99.90;;;;;;5072713;28;20128;-74
2023/06/23 09:03:14;;;;;;;9.77;5.63;;;24.60;99.90;;;;;;5071577;28;20060;-75
2023/06/23 09:05:43;;;;;;;7.80;4.75;;;24.70;99.90;;;;;;5051880;28;20606;-71
2023/06/23 09:08:10;;;;;;;6.25;5.18;;;24.90;99.90;;;;;;5049891;28;20048;-76
2023/06/23 09:10:36;;;;;;;8.20;5.57;;;24.90;99.90;;;;;;5062902;28;20060;-74
2023/06/23 09:13:08;;;;;;;7.60;5.55;;;25.00;99.90;;;;;;5066482;28;20083;-73
2023/06/23 09:15:34;;;;;;;7.18;5.55;;;25.00;99.90;;;;;;5062522;28;20056;-76
2023/06/23 09:18:03;;;;;;;7.07;5.95;;;25.10;99.90;;;;;;5028319;28;20124;-73
2023/06/23 09:20:33;;;;;;;8.75;6.13;;;25.20;99.90;;;;;;5066667;28;20044;-72
2023/06/23 09:22:58;;;;;;;8.15;6.18;;;25.20;99.90;;;;;;5050643;28;20481;-72
2023/06/23 09:25:41;;;;;;;8.23;5.50;;;25.30;99.90;;;;;;5042228;28;20128;-72
2023/06/23 09:28:07;;;;;;;7.72;5.10;;;25.30;99.90;;;;;;5068721;28;20480;-73
2023/06/23 09:30:33;;;;;;;6.75;4.20;;;25.30;99.90;;;;;;5049792;28;20120;-73
2023/06/23 09:33:00;;;;;;;6.47;4.47;;;25.40;99.90;;;;;;5064141;28;20048;-72
2023/06/23 09:35:26;;;;;;;9.13;5.80;;;25.40;99.90;;;;;;5064571;28;20117;-74
2023/06/23 09:37:52;;;;;;;7.75;5.95;;;25.30;99.90;;;;;;5066454;28;20047;-77
2023/06/23 09:40:26;;;;;;;10.63;5.32;;;25.40;99.90;;;;;;5063234;28;20048;-74
2023/06/23 09:43:00;;;;;;;11.13;4.28;;;25.40;99.90;;;;;;5061803;28;20533;-74
2023/06/23 09:45:25;;;;;;;12.23;5.88;;;25.40;99.90;;;;;;5049318;28;20036;-73
2023/06/23 09:47:51;;;;;;;5.97;5.45;;;25.40;99.90;;;;;;5044461;28;20380;-73
2023/06/23 09:50:21;;;;;;;9.77;5.47;;;25.30;99.90;;;;;;5047849;28;20067;-73
2023/06/23 09:52:46;;;;;;;7.60;4.95;;;25.30;99.90;;;;;;5060560;28;20056;-74
2023/06/23 09:55:12;;;;;;;6.90;4.97;;;25.30;99.90;;;;;;5044194;28;20048;-74
2023/06/23 09:57:38;;;;;;;7.28;4.70;;;25.30;99.90;;;;;;5059640;28;20045;-73
2023/06/23 10:00:08;;;;;;;7.13;4.85;;;25.20;99.90;;;;;;5063052;28;20040;-72
2023/06/23 10:02:38;;;;;;;5.65;4.15;;;25.30;99.90;;;;;;5049544;28;20094;-75
2023/06/23 10:05:05;;;;;;;8.68;5.10;;;25.30;99.90;;;;;;5053154;28;20045;-74
2023/06/23 10:07:32;;;;;;;8.30;4.70;;;25.30;99.90;;;;;;5048835;28;20078;-74
2023/06/23 10:10:04;;;;;;;8.70;4.07;;;25.30;99.90;;;;;;5066426;28;20033;-78
2023/06/23 10:12:30;;;;;;;6.23;4.17;;;25.40;99.90;;;;;;5067869;28;20037;-77
2023/06/23 10:14:57;;;;;;;6.90;5.50;;;25.30;99.90;;;;;;5064216;28;20491;-74
2023/06/23 10:17:24;;;;;;;10.40;5.07;;;25.20;99.90;;;;;;5062062;28;20163;-75
2023/06/23 10:19:51;;;;;;;8.45;4.40;;;25.10;99.90;;;;;;5065910;28;20452;-74
2023/06/23 10:22:19;;;;;;;8.38;4.97;;;25.20;99.90;;;;;;5068536;28;20068;-76
2023/06/23 10:24:56;;;;;;;8.80;4.95;;;25.20;99.90;;;;;;5066970;28;20051;-77
2023/06/23 10:27:28;;;;;;;6.88;5.20;;;25.30;99.90;;;;;;5037251;28;21759;-79
2023/06/23 10:29:55;;;;;;;;;;;25.20;99.90;;;;;;5046847;28;20041;-77
2023/06/23 10:32:29;;;;;;;6.90;4.07;;;25.20;99.90;;;;;;5040924;28;19929;-74
2023/06/23 10:35:02;;;;;;;6.88;4.18;;;25.20;99.90;;;;;;5048589;28;20045;-73
2023/06/23 10:37:30;;;;;;;5.57;3.72;;;25.20;99.90;;;;;;5060595;28;20071;-74
2023/06/23 10:40:04;;;;;;;7.15;4.40;;;25.30;99.90;;;;;;5046130;28;20482;-74
2023/06/23 10:42:34;;;;;;;5.93;4.03;;;25.30;99.90;;;;;;5041146;28;20040;-74
2023/06/23 10:45:00;;;;;;;7.35;4.32;;;25.40;99.90;;;;;;5044882;28;20084;-77
2023/06/23 10:47:27;;;;;;;6.18;4.10;;;25.40;99.90;;;;;;5039444;28;20071;-75
2023/06/23 10:49:52;;;;;;;3.88;2.88;;;25.40;99.90;;;;;;5058988;28;20080;-75
2023/06/23 10:52:18;;;;;;;6.18;2.85;;;25.40;99.90;;;;;;5064399;28;20064;-74
2023/06/23 10:54:44;;;;;;;5.57;4.03;;;25.40;99.90;;;;;;5067542;28;20618;-75
2023/06/23 10:57:12;;;;;;;5.18;3.28;;;25.40;99.90;;;;;;5063367;28;20037;-75
2023/06/23 10:59:43;;;;;;;6.57;3.30;;;25.50;99.90;;;;;;5041550;28;20136;-74
2023/06/23 11:02:16;;;;;;;6.13;2.97;;;25.50;99.90;;;;;;5047026;28;20040;-72
2023/06/23 11:04:56;;;;;;;4.07;2.72;;;25.50;99.90;;;;;;5063645;28;20135;-70
2023/06/23 11:07:23;;;;;;;5.53;3.00;;;25.50;99.90;;;;;;5042721;28;20134;-76
2023/06/23 11:09:58;;;;;;;5.53;2.97;;;25.60;99.90;;;;;;5036651;28;20044;-76
2023/06/23 11:12:44;;;;;;;6.32;3.47;;;25.60;99.90;;;;;;5058887;28;20183;-75
2023/06/23 11:15:20;;;;;;;6.45;2.85;;;25.70;99.90;;;;;;5039790;28;20058;-76
2023/06/23 11:18:19;;;;;;;5.32;2.97;;;25.80;99.90;;;;;;5045706;28;20045;-74
2023/06/23 11:20:45;;;;;;;7.82;3.40;;;25.90;99.90;;;;;;5025067;28;20361;-78
2023/06/23 11:23:13;;;;;;;8.32;3.97;;;25.80;99.90;;;;;;5045965;28;20040;-75
2023/06/23 11:25:56;;;;;;;6.53;3.33;;;25.80;99.90;;;;;;5059842;28;20070;-75
2023/06/23 11:28:35;;;;;;;5.57;3.38;;;25.80;99.90;;;;;;5053177;28;20036;-74
2023/06/23 11:31:15;;;;;;;5.47;3.15;;;25.90;99.90;;;;;;5038549;28;20059;-73
2023/06/23 11:33:42;;;;;;;5.82;2.63;;;25.90;99.90;;;;;;5040188;28;20745;-79
2023/06/23 11:36:19;;;;;;;4.55;2.70;;;25.90;99.90;;;;;;5060237;28;20044;-79
2023/06/23 11:38:45;;;;;;;6.88;3.10;;;25.90;99.90;;;;;;5060863;28;20048;-80
2023/06/23 11:41:23;;;;;;;4.60;2.40;;;25.90;99.90;;;;;;5061030;28;20635;-77
2023/06/23 11:43:48;;;;;;;6.43;2.95;;;25.90;99.90;;;;;;5047158;28;20142;-79
2023/06/23 11:46:15;;;;;;;5.88;3.22;;;25.90;99.90;;;;;;5064269;28;20120;-79
2023/06/23 11:48:42;;;;;;;4.78;2.40;;;25.90;99.90;;;;;;5044576;28;20411;-79
2023/06/23 11:51:15;;;;;;;6.50;3.20;;;25.90;99.90;;;;;;5064320;28;20120;-78
2023/06/23 11:53:41;;;;;;;5.55;3.30;;;25.80;99.90;;;;;;5061636;28;20380;-78
2023/06/23 11:56:08;;;;;;;5.68;2.70;;;26.00;99.90;;;;;;5060599;28;20037;-73
2023/06/23 11:58:36;;;;;;;8.73;2.90;;;26.00;99.90;;;;;;5060142;28;20392;-74
2023/06/23 12:01:04;;;;;;;3.95;2.30;;;26.00;99.90;;;;;;5056714;28;20298;-71
2023/06/23 12:03:31;;;;;;;5.13;2.92;;;25.90;99.90;;;;;;5026613;28;20125;-71
2023/06/23 12:05:59;;;;;;;4.75;2.90;;;25.80;99.90;;;;;;5050999;28;20306;-70
2023/06/23 12:08:27;;;;;;;4.10;2.92;;;25.70;99.90;;;;;;5046689;28;20040;-70
2023/06/23 12:10:53;;;;;;;4.45;2.45;;;25.70;99.90;;;;;;5058730;28;20408;-70
2023/06/23 12:13:20;;;;;;;4.20;2.50;;;25.70;99.90;;;;;;5044973;28;20119;-70
2023/06/23 12:15:45;;;;;;;5.38;2.80;;;25.70;99.90;;;;;;5060083;28;20045;-71
2023/06/23 12:18:11;;;;;;;4.95;2.80;;;25.90;99.90;;;;;;5027089;28;20124;-70
2023/06/23 12:20:39;;;;;;;4.93;2.55;;;26.00;99.90;;;;;;5055555;28;20148;-70
2023/06/23 12:23:06;;;;;;;5.10;2.60;;;26.00;99.90;;;;;;5041558;28;20052;-70
2023/06/23 12:25:33;;;;;;;5.80;2.42;;;26.10;99.90;;;;;;5041517;28;20044;-71
2023/06/23 12:28:03;;;;;;;7.30;3.25;;;26.00;99.90;;;;;;5037043;28;20048;-70
2023/06/23 12:30:41;;;;;;;4.22;2.38;;;25.70;99.90;;;;;;5036599;28;20032;-73
2023/06/23 12:33:37;;;;;;;6.07;2.70;;;25.60;99.90;;;;;;5039581;28;20052;-69
2023/06/23 12:36:05;;;;;;;7.25;2.78;;;25.60;99.90;;;;;;5056640;28;20059;-69
2023/06/23 12:38:34;;;;;;;4.47;2.67;;;25.70;99.90;;;;;;5059210;28;20055;-70
2023/06/23 12:41:26;;;;;;;7.40;2.60;;;25.80;99.90;;;;;;5039709;28;20059;-70
2023/06/23 12:44:00;;;;;;;5.53;2.50;;;25.80;99.90;;;;;;5054945;28;20050;-72
2023/06/23 12:46:27;;;;;;;6.15;2.80;;;25.80;99.90;;;;;;5040642;28;20083;-73